createdAt,value
2016-11-27T00:00:14.805Z,731.24
2016-11-27T00:01:14.791Z,731.07
2016-11-27T00:02:14.772Z,731.18
2016-11-27T00:03:14.754Z,730.87
2016-11-27T00:04:14.735Z,731.05
2016-11-27T00:05:14.715Z,730.93
2016-11-27T00:06:14.689Z,730.87
2016-11-27T00:07:14.678Z,730.92
2016-11-27T00:08:14.658Z,730.91
2016-11-27T00:09:14.639Z,730.82
2016-11-27T00:10:14.620Z,730.95
2016-11-27T00:11:14.601Z,730.79
2016-11-27T00:12:14.574Z,730.98
2016-11-27T00:13:14.562Z,730.92
2016-11-27T00:14:14.543Z,731.07
2016-11-27T00:15:14.518Z,731.01
2016-11-27T00:16:14.505Z,731.11
2016-11-27T00:17:14.479Z,731.1
2016-11-27T00:18:14.460Z,731.1
2016-11-27T00:19:14.447Z,730.84
2016-11-27T00:20:14.421Z,731.1
2016-11-27T00:21:14.402Z,730.98
2016-11-27T00:22:14.384Z,730.85
2016-11-27T00:23:14.370Z,730.88
2016-11-27T00:24:14.344Z,731.17
2016-11-27T00:25:14.332Z,730.93
2016-11-27T00:26:14.304Z,731.13
2016-11-27T00:27:14.285Z,731.27
2016-11-27T00:28:14.275Z,731.02
2016-11-27T00:29:14.247Z,731.15
2016-11-27T00:30:14.228Z,731.08
2016-11-27T00:31:14.216Z,730.88
2016-11-27T00:32:14.197Z,730.9
2016-11-27T00:33:14.171Z,730.72
2016-11-27T00:34:14.151Z,730.9
2016-11-27T00:35:14.139Z,730.9
2016-11-27T00:36:14.119Z,730.84
2016-11-27T00:37:14.100Z,730.89
2016-11-27T00:38:14.073Z,730.8
2016-11-27T00:39:14.061Z,730.98
2016-11-27T00:40:14.042Z,731.07
2016-11-27T00:41:14.022Z,730.95
2016-11-27T00:42:14.004Z,731.03
2016-11-27T00:43:13.984Z,730.93
2016-11-27T00:44:13.969Z,730.85
2016-11-27T00:45:13.938Z,731.13
2016-11-27T00:46:13.926Z,730.88
2016-11-27T00:47:13.901Z,731.11
2016-11-27T00:48:13.887Z,731.04
2016-11-27T00:49:13.861Z,730.93
2016-11-27T00:50:13.849Z,731.03
2016-11-27T00:51:13.824Z,730.84
2016-11-27T00:52:13.811Z,731.15
2016-11-27T00:53:13.783Z,730.93
2016-11-27T00:54:13.766Z,730.89
2016-11-27T00:55:13.753Z,730.98
2016-11-27T00:56:13.733Z,730.84
2016-11-27T00:57:13.714Z,731.03
2016-11-27T00:58:13.696Z,730.83
2016-11-27T00:59:13.667Z,731
2016-11-27T01:00:13.649Z,730.74
2016-11-27T01:01:13.629Z,730.83
2016-11-27T01:02:13.618Z,730.9
2016-11-27T01:03:13.590Z,730.91
2016-11-27T01:04:13.578Z,731.01
2016-11-27T01:05:13.559Z,730.79
2016-11-27T01:06:13.540Z,730.9
2016-11-27T01:07:13.513Z,731.04
2016-11-27T01:08:13.494Z,730.83
2016-11-27T01:09:13.482Z,730.42
2016-11-27T01:10:13.455Z,730.92
2016-11-27T01:11:13.443Z,730.93
2016-11-27T01:12:13.417Z,730.87
2016-11-27T01:13:13.405Z,730.67
2016-11-27T01:14:13.385Z,730.79
2016-11-27T01:15:13.366Z,730.82
2016-11-27T01:16:13.340Z,730.94
2016-11-27T01:17:13.321Z,730.94
2016-11-27T01:18:13.308Z,731.01
2016-11-27T01:19:13.289Z,730.97
2016-11-27T01:20:13.264Z,730.93
2016-11-27T01:21:13.242Z,731.02
2016-11-27T01:22:13.231Z,730.93
2016-11-27T01:23:13.205Z,730.8
2016-11-27T01:24:13.186Z,731.03
2016-11-27T01:25:13.173Z,731.09
2016-11-27T01:26:13.154Z,731.03
2016-11-27T01:27:13.135Z,730.8
2016-11-27T01:28:13.116Z,731.04
2016-11-27T01:29:13.089Z,730.99
2016-11-27T01:30:13.070Z,731.02
2016-11-27T01:31:13.058Z,731.08
2016-11-27T01:32:13.031Z,731.08
2016-11-27T01:33:13.012Z,731.08
2016-11-27T01:34:13.000Z,730.88
2016-11-27T01:35:12.974Z,731.02
2016-11-27T01:36:12.961Z,730.93
2016-11-27T01:37:12.934Z,731.06
2016-11-27T01:38:12.923Z,731.02
2016-11-27T01:39:12.904Z,730.91
2016-11-27T01:40:12.884Z,730.99
2016-11-27T01:41:12.865Z,730.95
2016-11-27T01:42:12.846Z,730.89
2016-11-27T01:43:12.820Z,731.01
2016-11-27T01:44:12.801Z,731.07
2016-11-27T01:45:12.781Z,730.98
2016-11-27T01:46:12.769Z,730.83
2016-11-27T01:47:12.744Z,730.95
2016-11-27T01:48:12.724Z,730.97
2016-11-27T01:49:12.704Z,730.97
2016-11-27T01:50:12.687Z,730.95
2016-11-27T01:51:12.673Z,730.83
2016-11-27T01:52:12.648Z,730.86
2016-11-27T01:53:12.629Z,730.54
2016-11-27T01:54:12.608Z,730.79
2016-11-27T01:55:12.589Z,730.71
2016-11-27T01:56:12.570Z,730.76
2016-11-27T01:57:12.562Z,730.83
2016-11-27T01:58:12.539Z,730.97
2016-11-27T01:59:12.520Z,730.77
2016-11-27T02:00:12.501Z,730.75
2016-11-27T02:01:12.481Z,730.74
2016-11-27T02:02:12.455Z,730.75
2016-11-27T02:03:12.437Z,730.8
2016-11-27T02:04:12.425Z,730.73
2016-11-27T02:05:12.405Z,730.66
2016-11-27T02:06:12.379Z,730.8
2016-11-27T02:07:12.367Z,730.65
2016-11-27T02:08:12.342Z,730.77
2016-11-27T02:09:12.329Z,730.73
2016-11-27T02:10:12.303Z,730.84
2016-11-27T02:11:12.291Z,730.78
2016-11-27T02:12:12.264Z,730.7
2016-11-27T02:13:12.246Z,730.57
2016-11-27T02:14:12.234Z,730.69
2016-11-27T02:15:12.209Z,730.72
2016-11-27T02:16:12.190Z,730.67
2016-11-27T02:17:12.173Z,730.71
2016-11-27T02:18:12.159Z,730.77
2016-11-27T02:19:12.133Z,730.67
2016-11-27T02:20:12.113Z,730.67
2016-11-27T02:21:12.102Z,730.79
2016-11-27T02:22:12.076Z,730.72
2016-11-27T02:23:12.057Z,730.73
2016-11-27T02:24:12.046Z,730.68
2016-11-27T02:25:12.028Z,730.57
2016-11-27T02:26:12.002Z,730.62
2016-11-27T02:27:11.989Z,730.61
2016-11-27T02:28:11.971Z,730.72
2016-11-27T02:29:11.946Z,730.6
2016-11-27T02:30:11.934Z,730.7
2016-11-27T02:31:11.908Z,730.48
2016-11-27T02:32:11.891Z,730.6
2016-11-27T02:33:11.878Z,730.76
2016-11-27T02:34:11.852Z,730.72
2016-11-27T02:35:11.840Z,730.62
2016-11-27T02:36:11.827Z,730.64
2016-11-27T02:37:11.797Z,730.49
2016-11-27T02:38:11.776Z,730.55
2016-11-27T02:39:11.765Z,730.6
2016-11-27T02:40:11.747Z,730.46
2016-11-27T02:41:11.725Z,730.73
2016-11-27T02:42:11.709Z,730.6
2016-11-27T02:43:11.684Z,730.54
2016-11-27T02:44:11.672Z,730.59
2016-11-27T02:45:11.653Z,730.58
2016-11-27T02:46:11.634Z,730.65
2016-11-27T02:47:11.610Z,730.62
2016-11-27T02:48:11.591Z,730.63
2016-11-27T02:49:11.580Z,730.54
2016-11-27T02:50:11.554Z,730.38
2016-11-27T02:51:11.543Z,730.62
2016-11-27T02:52:11.524Z,730.54
2016-11-27T02:53:11.498Z,730.64
2016-11-27T02:54:11.480Z,730.61
2016-11-27T02:55:11.463Z,730.5
2016-11-27T02:56:11.444Z,730.53
2016-11-27T02:57:11.432Z,730.63
2016-11-27T02:58:11.408Z,730.57
2016-11-27T02:59:11.389Z,730.62
2016-11-27T03:00:11.370Z,730.56
2016-11-27T03:01:11.359Z,730.58
2016-11-27T03:02:11.333Z,730.42
2016-11-27T03:03:11.323Z,730.42
2016-11-27T03:04:11.304Z,730.62
2016-11-27T03:05:11.279Z,730.52
2016-11-27T03:06:11.268Z,730.41
2016-11-27T03:07:11.242Z,730.61
2016-11-27T03:08:11.224Z,730.48
2016-11-27T03:09:11.206Z,730.43
2016-11-27T03:10:11.194Z,730.55
2016-11-27T03:11:11.168Z,730.4
2016-11-27T03:12:11.157Z,730.44
2016-11-27T03:13:11.132Z,730.42
2016-11-27T03:14:11.121Z,730.49
2016-11-27T03:15:11.095Z,730.5
2016-11-27T03:16:11.076Z,730.51
2016-11-27T03:17:11.066Z,730.49
2016-11-27T03:18:11.039Z,730.51
2016-11-27T03:19:11.028Z,730.61
2016-11-27T03:20:11.003Z,730.55
2016-11-27T03:21:10.992Z,730.54
2016-11-27T03:22:10.973Z,730.51
2016-11-27T03:23:10.955Z,730.54
2016-11-27T03:24:10.929Z,730.49
2016-11-27T03:25:10.913Z,730.42
2016-11-27T03:26:10.894Z,730.52
2016-11-27T03:27:10.877Z,730.54
2016-11-27T03:28:10.865Z,730.59
2016-11-27T03:29:10.840Z,730.61
2016-11-27T03:30:10.821Z,730.58
2016-11-27T03:31:10.803Z,730.58
2016-11-27T03:32:10.793Z,730.49
2016-11-27T03:33:10.774Z,730.55
2016-11-27T03:34:10.756Z,730.48
2016-11-27T03:35:10.731Z,730.47
2016-11-27T03:36:10.712Z,730.64
2016-11-27T03:37:10.702Z,730.61
2016-11-27T03:38:10.678Z,730.46
2016-11-27T03:39:10.666Z,730.56
2016-11-27T03:40:10.640Z,730.63
2016-11-27T03:41:10.623Z,730.55
2016-11-27T03:42:10.612Z,730.59
2016-11-27T03:43:10.588Z,730.66
2016-11-27T03:44:10.576Z,730.68
2016-11-27T03:45:10.552Z,730.61
2016-11-27T03:46:10.540Z,730.6
2016-11-27T03:47:10.522Z,730.63
2016-11-27T03:48:10.504Z,730.46
2016-11-27T03:49:10.479Z,730.59
2016-11-27T03:50:10.469Z,730.58
2016-11-27T03:51:10.451Z,730.54
2016-11-27T03:52:10.426Z,730.58
2016-11-27T03:53:10.409Z,730.51
2016-11-27T03:54:10.399Z,730.52
2016-11-27T03:55:10.374Z,730.42
2016-11-27T03:56:10.356Z,730.45
2016-11-27T03:57:10.358Z,730.52
2016-11-27T03:58:10.327Z,730.5
2016-11-27T03:59:10.305Z,730.53
2016-11-27T04:00:10.285Z,730.55
2016-11-27T04:01:10.268Z,730.5
2016-11-27T04:02:10.250Z,730.65
2016-11-27T04:03:10.238Z,730.51
2016-11-27T04:04:10.222Z,730.52
2016-11-27T04:05:10.203Z,730.46
2016-11-27T04:06:10.177Z,730.54
2016-11-27T04:07:10.163Z,730.55
2016-11-27T04:08:10.142Z,730.51
2016-11-27T04:09:10.123Z,730.42
2016-11-27T04:10:10.113Z,730.45
2016-11-27T04:11:10.095Z,730.39
2016-11-27T04:12:10.070Z,730.46
2016-11-27T04:13:10.051Z,730.49
2016-11-27T04:14:10.040Z,730.42
2016-11-27T04:15:10.022Z,730.31
2016-11-27T04:16:10.004Z,730.39
2016-11-27T04:17:09.978Z,730.38
2016-11-27T04:18:09.960Z,730.51
2016-11-27T04:19:09.943Z,730.38
2016-11-27T04:20:09.923Z,730.47
2016-11-27T04:21:09.904Z,730.43
2016-11-27T04:22:09.887Z,730.5
2016-11-27T04:23:09.875Z,730.46
2016-11-27T04:24:09.856Z,730.43
2016-11-27T04:25:09.838Z,730.45
2016-11-27T04:26:09.820Z,730.48
2016-11-27T04:27:09.795Z,730.41
2016-11-27T04:28:09.783Z,730.41
2016-11-27T04:29:09.757Z,730.45
2016-11-27T04:30:09.746Z,730.44
2016-11-27T04:31:09.719Z,730.45
2016-11-27T04:32:09.702Z,730.35
2016-11-27T04:33:09.690Z,730.36
2016-11-27T04:34:09.664Z,730.34
2016-11-27T04:35:09.646Z,730.33
2016-11-27T04:36:09.634Z,730.35
2016-11-27T04:37:09.615Z,730.41
2016-11-27T04:38:09.596Z,730.48
2016-11-27T04:39:09.576Z,730.3
2016-11-27T04:40:09.551Z,730.39
2016-11-27T04:41:09.531Z,730.43
2016-11-27T04:42:09.519Z,730.55
2016-11-27T04:43:09.500Z,730.41
2016-11-27T04:44:09.481Z,730.4
2016-11-27T04:45:09.462Z,730.49
2016-11-27T04:46:09.436Z,730.46
2016-11-27T04:47:09.416Z,730.44
2016-11-27T04:48:09.399Z,730.39
2016-11-27T04:49:09.386Z,730.44
2016-11-27T04:50:09.360Z,730.45
2016-11-27T04:51:09.348Z,730.46
2016-11-27T04:52:09.330Z,730.49
2016-11-27T04:53:09.303Z,730.43
2016-11-27T04:54:09.285Z,730.48
2016-11-27T04:55:09.273Z,730.44
2016-11-27T04:56:09.249Z,730.47
2016-11-27T04:57:09.228Z,730.49
2016-11-27T04:58:09.217Z,730.23
2016-11-27T04:59:09.198Z,730.2
2016-11-27T05:00:09.173Z,730.4
2016-11-27T05:01:09.161Z,730.42
2016-11-27T05:02:09.134Z,730.33
2016-11-27T05:03:09.116Z,730.24
2016-11-27T05:04:09.096Z,730.22
2016-11-27T05:05:09.084Z,730.27
2016-11-27T05:06:09.057Z,730.09
2016-11-27T05:07:09.045Z,730.18
2016-11-27T05:08:09.025Z,730.16
2016-11-27T05:09:08.999Z,730.3
2016-11-27T05:10:08.986Z,730.27
2016-11-27T05:11:08.966Z,730.21
2016-11-27T05:12:08.946Z,730.27
2016-11-27T05:13:08.928Z,730.26
2016-11-27T05:14:08.902Z,730.26
2016-11-27T05:15:08.882Z,730.29
2016-11-27T05:16:08.861Z,730.41
2016-11-27T05:17:08.843Z,730.43
2016-11-27T05:18:08.823Z,730.34
2016-11-27T05:19:08.803Z,730.36
2016-11-27T05:20:08.791Z,730.38
2016-11-27T05:21:08.773Z,730.36
2016-11-27T05:22:08.751Z,730.34
2016-11-27T05:23:08.732Z,730.47
2016-11-27T05:24:08.713Z,730.36
2016-11-27T05:25:08.693Z,730.34
2016-11-27T05:26:08.666Z,730.33
2016-11-27T05:27:08.648Z,730.22
2016-11-27T05:28:08.629Z,730.29
2016-11-27T05:29:08.617Z,730.32
2016-11-27T05:30:08.597Z,730.2
2016-11-27T05:31:08.571Z,730.22
2016-11-27T05:32:08.551Z,730.42
2016-11-27T05:33:08.538Z,730.45
2016-11-27T05:34:08.513Z,730.41
2016-11-27T05:35:08.500Z,730.42
2016-11-27T05:36:08.474Z,730.35
2016-11-27T05:37:08.461Z,730.45
2016-11-27T05:38:08.435Z,730.41
2016-11-27T05:39:08.423Z,730.43
2016-11-27T05:40:08.396Z,730.45
2016-11-27T05:41:08.377Z,730.44
2016-11-27T05:42:08.357Z,730.37
2016-11-27T05:43:08.345Z,730.31
2016-11-27T05:44:08.325Z,730.33
2016-11-27T05:45:08.299Z,730.31
2016-11-27T05:46:08.287Z,730.28
2016-11-27T05:47:08.267Z,730.34
2016-11-27T05:48:08.247Z,730.41
2016-11-27T05:49:08.228Z,730.45
2016-11-27T05:50:08.201Z,730.44
2016-11-27T05:51:08.184Z,730.35
2016-11-27T05:52:08.169Z,730.35
2016-11-27T05:53:08.150Z,730.36
2016-11-27T05:54:08.125Z,730.27
2016-11-27T05:55:08.103Z,730.31
2016-11-27T05:56:08.091Z,730.25
2016-11-27T05:57:08.072Z,730.2
2016-11-27T05:58:08.053Z,730.19
2016-11-27T05:59:08.033Z,730.31
2016-11-27T06:00:08.006Z,730.4
2016-11-27T06:01:07.994Z,730.38
2016-11-27T06:02:07.975Z,730.39
2016-11-27T06:03:07.955Z,730.34
2016-11-27T06:04:07.936Z,730.4
2016-11-27T06:05:07.917Z,730.32
2016-11-27T06:06:07.897Z,730.39
2016-11-27T06:07:07.871Z,730.28
2016-11-27T06:08:07.859Z,730.46
2016-11-27T06:09:07.840Z,730.43
2016-11-27T06:10:07.813Z,730.39
2016-11-27T06:11:07.795Z,730.43
2016-11-27T06:12:07.775Z,730.39
2016-11-27T06:13:07.758Z,730.41
2016-11-27T06:14:07.738Z,730.24
2016-11-27T06:15:07.725Z,730.43
2016-11-27T06:16:07.706Z,730.45
2016-11-27T06:17:07.679Z,730.49
2016-11-27T06:18:07.668Z,730.52
2016-11-27T06:19:07.641Z,730.45
2016-11-27T06:20:07.630Z,730.51
2016-11-27T06:21:07.602Z,730.46
2016-11-27T06:22:07.584Z,730.49
2016-11-27T06:23:07.564Z,730.54
2016-11-27T06:24:07.553Z,730.59
2016-11-27T06:25:07.533Z,730.55
2016-11-27T06:26:07.514Z,730.57
2016-11-27T06:27:07.495Z,730.59
2016-11-27T06:28:07.475Z,730.65
2016-11-27T06:29:07.456Z,730.6
2016-11-27T06:30:07.431Z,730.67
2016-11-27T06:31:07.419Z,730.66
2016-11-27T06:32:07.393Z,730.67
2016-11-27T06:33:07.373Z,730.74
2016-11-27T06:34:07.361Z,730.78
2016-11-27T06:35:07.342Z,730.72
2016-11-27T06:36:07.316Z,730.72
2016-11-27T06:37:07.298Z,730.67
2016-11-27T06:38:07.280Z,730.72
2016-11-27T06:39:07.260Z,730.73
2016-11-27T06:40:07.248Z,730.73
2016-11-27T06:41:07.228Z,730.76
2016-11-27T06:42:07.210Z,730.7
2016-11-27T06:43:07.190Z,730.71
2016-11-27T06:44:07.164Z,730.74
2016-11-27T06:45:07.145Z,730.76
2016-11-27T06:46:07.126Z,730.78
2016-11-27T06:47:07.108Z,730.65
2016-11-27T06:48:07.096Z,730.81
2016-11-27T06:49:07.078Z,730.56
2016-11-27T06:50:07.049Z,730.69
2016-11-27T06:51:07.037Z,730.6
2016-11-27T06:52:07.018Z,730.64
2016-11-27T06:53:06.992Z,730.62
2016-11-27T06:54:06.973Z,730.58
2016-11-27T06:55:06.954Z,730.63
2016-11-27T06:56:06.941Z,730.63
2016-11-27T06:57:06.921Z,730.5
2016-11-27T06:58:06.896Z,730.56
2016-11-27T06:59:06.883Z,730.67
2016-11-27T07:00:06.859Z,730.63
2016-11-27T07:01:06.843Z,730.57
2016-11-27T07:02:06.824Z,730.57
2016-11-27T07:03:06.804Z,730.7
2016-11-27T07:04:06.785Z,730.48
2016-11-27T07:05:06.758Z,730.38
2016-11-27T07:06:06.738Z,730.6
2016-11-27T07:07:06.726Z,730.54
2016-11-27T07:08:06.706Z,730.57
2016-11-27T07:09:06.679Z,730.69
2016-11-27T07:10:06.659Z,730.59
2016-11-27T07:11:06.647Z,730.66
2016-11-27T07:12:06.619Z,730.71
2016-11-27T07:13:06.608Z,730.74
2016-11-27T07:14:06.581Z,730.62
2016-11-27T07:15:06.568Z,730.74
2016-11-27T07:16:06.540Z,730.78
2016-11-27T07:17:06.520Z,730.78
2016-11-27T07:18:06.508Z,730.74
2016-11-27T07:19:06.480Z,730.74
2016-11-27T07:20:06.468Z,730.61
2016-11-27T07:21:06.441Z,730.78
2016-11-27T07:22:06.422Z,730.87
2016-11-27T07:23:06.402Z,730.72
2016-11-27T07:24:06.389Z,730.69
2016-11-27T07:25:06.363Z,730.55
2016-11-27T07:26:06.350Z,730.71
2016-11-27T07:27:06.323Z,730.78
2016-11-27T07:28:06.303Z,730.78
2016-11-27T07:29:06.291Z,730.9
2016-11-27T07:30:06.265Z,730.92
2016-11-27T07:31:06.252Z,730.71
2016-11-27T07:32:06.226Z,730.79
2016-11-27T07:33:06.208Z,730.53
2016-11-27T07:34:06.187Z,730.85
2016-11-27T07:35:06.169Z,730.8
2016-11-27T07:36:06.156Z,730.85
2016-11-27T07:37:06.137Z,730.84
2016-11-27T07:38:06.111Z,730.93
2016-11-27T07:39:06.092Z,730.99
2016-11-27T07:40:06.079Z,731.02
2016-11-27T07:41:06.052Z,730.88
2016-11-27T07:42:06.041Z,730.91
2016-11-27T07:43:06.024Z,730.84
2016-11-27T07:44:05.997Z,730.9
2016-11-27T07:45:05.976Z,731.03
2016-11-27T07:46:05.958Z,731.05
2016-11-27T07:47:05.947Z,730.95
2016-11-27T07:48:05.921Z,731.03
2016-11-27T07:49:05.902Z,730.93
2016-11-27T07:50:05.890Z,730.93
2016-11-27T07:51:05.865Z,730.97
2016-11-27T07:52:05.852Z,730.8
2016-11-27T07:53:05.826Z,730.89
2016-11-27T07:54:05.815Z,730.89
2016-11-27T07:55:05.789Z,730.83
2016-11-27T07:56:05.777Z,730.86
2016-11-27T07:57:05.752Z,730.88
2016-11-27T07:58:05.734Z,730.84
2016-11-27T07:59:05.715Z,730.89
2016-11-27T08:00:05.702Z,730.81
2016-11-27T08:01:05.684Z,730.89
2016-11-27T08:02:05.665Z,730.85
2016-11-27T08:03:05.638Z,731.03
2016-11-27T08:04:05.620Z,730.96
2016-11-27T08:05:05.609Z,730.95
2016-11-27T08:06:05.590Z,730.99
2016-11-27T08:07:05.565Z,731.01
2016-11-27T08:08:05.547Z,730.81
2016-11-27T08:09:05.527Z,731.02
2016-11-27T08:10:05.510Z,730.94
2016-11-27T08:11:05.498Z,730.89
2016-11-27T08:12:05.473Z,730.71
2016-11-27T08:13:05.455Z,730.7
2016-11-27T08:14:05.442Z,730.84
2016-11-27T08:15:05.423Z,730.84
2016-11-27T08:16:05.399Z,730.84
2016-11-27T08:17:05.379Z,730.74
2016-11-27T08:18:05.360Z,730.89
2016-11-27T08:19:05.349Z,730.92
2016-11-27T08:20:05.329Z,730.84
2016-11-27T08:21:05.303Z,730.82
2016-11-27T08:22:05.285Z,730.89
2016-11-27T08:23:05.267Z,730.83
2016-11-27T08:24:05.249Z,730.73
2016-11-27T08:25:05.228Z,730.88
2016-11-27T08:26:05.209Z,730.91
2016-11-27T08:27:05.193Z,730.98
2016-11-27T08:28:05.180Z,730.99
2016-11-27T08:29:05.161Z,731.01
2016-11-27T08:30:05.143Z,730.91
2016-11-27T08:31:05.118Z,730.93
2016-11-27T08:32:05.099Z,730.97
2016-11-27T08:33:05.087Z,730.99
2016-11-27T08:34:05.069Z,730.85
2016-11-27T08:35:05.051Z,730.93
2016-11-27T08:36:05.031Z,730.95
2016-11-27T08:37:05.013Z,730.91
2016-11-27T08:38:04.987Z,730.97
2016-11-27T08:39:04.970Z,730.96
2016-11-27T08:40:04.958Z,730.96
2016-11-27T08:41:04.940Z,730.86
2016-11-27T08:42:04.921Z,730.98
2016-11-27T08:43:04.902Z,730.86
2016-11-27T08:44:04.878Z,730.92
2016-11-27T08:45:04.858Z,730.92
2016-11-27T08:46:04.848Z,730.97
2016-11-27T08:47:04.822Z,731.03
2016-11-27T08:48:04.803Z,730.94
2016-11-27T08:49:04.785Z,730.94
2016-11-27T08:50:04.768Z,731.05
2016-11-27T08:51:04.755Z,731.02
2016-11-27T08:52:04.730Z,731.06
2016-11-27T08:53:04.719Z,731
2016-11-27T08:54:04.693Z,731.01
2016-11-27T08:55:04.683Z,730.93
2016-11-27T08:56:04.665Z,731.02
2016-11-27T08:57:04.647Z,731.03
2016-11-27T08:58:04.621Z,731.01
2016-11-27T08:59:04.603Z,730.99
2016-11-27T09:00:04.593Z,731.05
2016-11-27T09:01:04.575Z,730.99
2016-11-27T09:02:04.556Z,731.01
2016-11-27T09:03:04.531Z,730.86
2016-11-27T09:04:04.515Z,730.8
2016-11-27T09:05:04.495Z,730.7
2016-11-27T09:06:04.479Z,730.85
2016-11-27T09:07:04.460Z,730.88
2016-11-27T09:08:04.442Z,730.88
2016-11-27T09:09:04.431Z,730.88
2016-11-27T09:10:04.405Z,731.12
2016-11-27T09:11:04.388Z,730.95
2016-11-27T09:12:04.371Z,730.89
2016-11-27T09:13:04.351Z,730.89
2016-11-27T09:14:04.333Z,730.86
2016-11-27T09:15:04.322Z,730.94
2016-11-27T09:16:04.303Z,730.9
2016-11-27T09:17:04.285Z,730.99
2016-11-27T09:18:04.259Z,731.05
2016-11-27T09:19:04.249Z,730.95
2016-11-27T09:20:04.224Z,730.91
2016-11-27T09:21:04.211Z,731.21
2016-11-27T09:22:04.193Z,730.97
2016-11-27T09:23:04.175Z,731.05
2016-11-27T09:24:04.149Z,730.98
2016-11-27T09:25:04.138Z,730.96
2016-11-27T09:26:04.113Z,730.94
2016-11-27T09:27:04.100Z,730.87
2016-11-27T09:28:04.075Z,731.03
2016-11-27T09:29:04.057Z,730.94
2016-11-27T09:30:04.046Z,730.99
2016-11-27T09:31:04.026Z,730.9
2016-11-27T09:32:04.008Z,731.01
2016-11-27T09:33:03.990Z,730.89
2016-11-27T09:34:03.971Z,730.69
2016-11-27T09:35:03.952Z,730.87
2016-11-27T09:36:03.933Z,730.87
2016-11-27T09:37:03.908Z,730.99
2016-11-27T09:38:03.889Z,730.93
2016-11-27T09:39:03.878Z,730.8
2016-11-27T09:40:03.859Z,730.7
2016-11-27T09:41:03.841Z,730.74
2016-11-27T09:42:03.814Z,730.81
2016-11-27T09:43:03.803Z,730.77
2016-11-27T09:44:03.779Z,730.66
2016-11-27T09:45:03.760Z,730.7
2016-11-27T09:46:03.740Z,730.62
2016-11-27T09:47:03.722Z,730.8
2016-11-27T09:48:03.719Z,730.77
2016-11-27T09:49:03.685Z,730.67
2016-11-27T09:50:03.667Z,730.74
2016-11-27T09:51:03.650Z,730.82
2016-11-27T09:52:03.631Z,730.66
2016-11-27T09:53:03.618Z,730.8
2016-11-27T09:54:03.600Z,730.83
2016-11-27T09:55:03.582Z,730.86
2016-11-27T09:56:03.563Z,730.71
2016-11-27T09:57:03.538Z,730.65
2016-11-27T09:58:03.520Z,730.67
2016-11-27T09:59:03.509Z,730.69
2016-11-27T10:00:03.483Z,730.6
2016-11-27T10:01:03.465Z,730.78
2016-11-27T10:02:03.448Z,730.67
2016-11-27T10:03:03.436Z,730.72
2016-11-27T10:04:03.418Z,730.69
2016-11-27T10:05:03.394Z,730.77
2016-11-27T10:06:03.376Z,730.71
2016-11-27T10:07:03.357Z,730.62
2016-11-27T10:08:03.339Z,730.72
2016-11-27T10:09:03.328Z,730.72
2016-11-27T10:10:03.303Z,730.67
2016-11-27T10:11:03.292Z,730.75
2016-11-27T10:12:03.267Z,730.77
2016-11-27T10:13:03.257Z,730.69
2016-11-27T10:14:03.233Z,730.71
2016-11-27T10:15:03.221Z,730.74
2016-11-27T10:16:03.203Z,730.64
2016-11-27T10:17:03.186Z,730.59
2016-11-27T10:18:03.160Z,730.62
2016-11-27T10:19:03.154Z,730.68
2016-11-27T10:20:03.133Z,730.56
2016-11-27T10:21:03.108Z,730.59
2016-11-27T10:22:03.098Z,730.51
2016-11-27T10:23:03.074Z,730.63
2016-11-27T10:24:03.056Z,730.61
2016-11-27T10:25:03.038Z,730.66
2016-11-27T10:26:03.019Z,730.6
2016-11-27T10:27:03.002Z,730.56
2016-11-27T10:28:02.991Z,730.44
2016-11-27T10:29:02.972Z,730.23
2016-11-27T10:30:02.948Z,730.51
2016-11-27T10:31:02.932Z,730.54
2016-11-27T10:32:02.913Z,730.44
2016-11-27T10:33:02.900Z,730.41
2016-11-27T10:34:02.875Z,730.52
2016-11-27T10:35:02.858Z,730.52
2016-11-27T10:36:02.851Z,730.46
2016-11-27T10:37:02.827Z,730.38
2016-11-27T10:38:02.804Z,730.43
2016-11-27T10:39:02.792Z,730.45
2016-11-27T10:40:02.774Z,730.39
2016-11-27T10:41:02.748Z,730.39
2016-11-27T10:42:02.731Z,730.48
2016-11-27T10:43:02.714Z,730.45
2016-11-27T10:44:02.695Z,730.41
2016-11-27T10:45:02.685Z,730.48
2016-11-27T10:46:02.661Z,730.56
2016-11-27T10:47:02.651Z,730.48
2016-11-27T10:48:02.632Z,730.44
2016-11-27T10:49:02.608Z,730.48
2016-11-27T10:50:02.591Z,730.39
2016-11-27T10:51:02.581Z,730.41
2016-11-27T10:52:02.564Z,730.27
2016-11-27T10:53:02.540Z,730.3
2016-11-27T10:54:02.529Z,730.39
2016-11-27T10:55:02.505Z,730.39
2016-11-27T10:56:02.488Z,730.42
2016-11-27T10:57:02.478Z,730.22
2016-11-27T10:58:02.454Z,730.3
2016-11-27T10:59:02.443Z,730.36
2016-11-27T11:00:02.419Z,730.3
2016-11-27T11:01:02.403Z,730.4
2016-11-27T11:02:02.391Z,730.31
2016-11-27T11:03:02.367Z,730.29
2016-11-27T11:04:02.350Z,730.33
2016-11-27T11:05:02.341Z,730.34
2016-11-27T11:06:02.315Z,730.26
2016-11-27T11:07:02.306Z,730.39
2016-11-27T11:08:02.289Z,730.4
2016-11-27T11:09:02.272Z,730.38
2016-11-27T11:10:02.254Z,730.34
2016-11-27T11:11:02.230Z,730.39
2016-11-27T11:12:02.220Z,730.33
2016-11-27T11:13:02.195Z,730.32
2016-11-27T11:14:02.186Z,730.27
2016-11-27T11:15:02.169Z,730.3
2016-11-27T11:16:02.146Z,730.29
2016-11-27T11:17:02.128Z,730.2
2016-11-27T11:18:02.118Z,730.24
2016-11-27T11:19:02.101Z,730.28
2016-11-27T11:20:02.078Z,730.27
2016-11-27T11:21:02.067Z,730.29
2016-11-27T11:22:02.043Z,730.24
2016-11-27T11:23:02.027Z,730.23
2016-11-27T11:24:02.007Z,730.19
2016-11-27T11:25:01.997Z,730.22
2016-11-27T11:26:01.972Z,730.22
2016-11-27T11:27:01.955Z,730.22
2016-11-27T11:28:01.937Z,730.27
2016-11-27T11:29:01.920Z,730.09
2016-11-27T11:30:01.902Z,730.13
2016-11-27T11:31:01.883Z,730.15
2016-11-27T11:32:01.872Z,730.17
2016-11-27T11:33:01.848Z,730.11
2016-11-27T11:34:01.836Z,730.22
2016-11-27T11:35:01.811Z,730.21
2016-11-27T11:36:01.792Z,730.14
2016-11-27T11:37:01.781Z,730.08
2016-11-27T11:38:01.757Z,730
2016-11-27T11:39:01.744Z,730.08
2016-11-27T11:40:01.727Z,730.12
2016-11-27T11:41:01.713Z,730.1
2016-11-27T11:42:01.689Z,730.19
2016-11-27T11:43:01.671Z,730.17
2016-11-27T11:44:01.647Z,730.13
2016-11-27T11:45:01.629Z,730.11
2016-11-27T11:46:01.616Z,730.24
2016-11-27T11:47:01.599Z,730.19
2016-11-27T11:48:01.579Z,730.17
2016-11-27T11:49:01.555Z,730.17
2016-11-27T11:50:01.542Z,730.07
2016-11-27T11:51:01.524Z,730.08
2016-11-27T11:52:01.499Z,729.89
2016-11-27T11:53:01.487Z,729.87
2016-11-27T11:54:01.462Z,729.96
2016-11-27T11:55:01.450Z,730.05
2016-11-27T11:56:01.431Z,729.87
2016-11-27T11:57:01.412Z,729.94
2016-11-27T11:58:01.386Z,729.93
2016-11-27T11:59:01.375Z,729.89
2016-11-27T12:00:01.350Z,729.92
2016-11-27T12:01:01.337Z,729.98
2016-11-27T12:02:01.319Z,729.88
2016-11-27T12:03:01.294Z,729.86
2016-11-27T12:04:01.281Z,729.82
2016-11-27T12:05:01.262Z,729.82
2016-11-27T12:06:01.236Z,729.76
2016-11-27T12:07:01.218Z,729.83
2016-11-27T12:08:01.205Z,729.84
2016-11-27T12:09:01.179Z,729.71
2016-11-27T12:10:01.162Z,729.45
2016-11-27T12:11:01.149Z,729.7
2016-11-27T12:12:01.130Z,729.71
2016-11-27T12:13:01.103Z,729.64
2016-11-27T12:14:01.093Z,729.71
2016-11-27T12:15:01.072Z,729.68
2016-11-27T12:16:01.047Z,729.72
2016-11-27T12:17:01.034Z,729.72
2016-11-27T12:18:01.016Z,729.7
2016-11-27T12:19:00.996Z,729.65
2016-11-27T12:20:00.970Z,729.64
2016-11-27T12:21:00.950Z,729.67
2016-11-27T12:22:00.932Z,729.67
2016-11-27T12:23:00.919Z,729.48
2016-11-27T12:24:00.893Z,729.67
2016-11-27T12:25:00.874Z,729.61
2016-11-27T12:26:00.861Z,729.67
2016-11-27T12:27:00.834Z,729.62
2016-11-27T12:28:00.816Z,729.56
2016-11-27T12:29:00.797Z,729.61
2016-11-27T12:30:00.783Z,729.65